sensor_id;sensor_type;location;lat;lon;timestamp;pressure;altitude;pressure_sealevel;temperature;humidity
18755;BME280;35061;47.664;9.166;2023-02-28T00:01:34;101924.34;;;-0.89;68.19
18755;BME280;35061;47.664;9.166;2023-02-28T00:04:01;101924.34;;;-0.89;68.11
18755;BME280;35061;47.664;9.166;2023-02-28T00:06:30;101923.13;;;-0.88;68.17
18755;BME280;35061;47.664;9.166;2023-02-28T00:08:58;101919.50;;;-0.88;68.21
18755;BME280;35061;47.664;9.166;2023-02-28T00:11:25;101918.72;;;-0.85;68.35
18755;BME280;35061;47.664;9.166;2023-02-28T00:13:54;101919.14;;;-0.83;68.18
18755;BME280;35061;47.664;9.166;2023-02-28T00:16:22;101917.51;;;-0.88;68.25
18755;BME280;35061;47.664;9.166;2023-02-28T00:18:50;101929.54;;;-0.87;68.26
18755;BME280;35061;47.664;9.166;2023-02-28T00:21:19;101927.61;;;-0.83;68.31
18755;BME280;35061;47.664;9.166;2023-02-28T00:23:47;101923.55;;;-0.86;68.23
18755;BME280;35061;47.664;9.166;2023-02-28T00:26:15;101927.98;;;-0.85;68.23
18755;BME280;35061;47.664;9.166;2023-02-28T00:28:44;101930.79;;;-0.85;68.26
18755;BME280;35061;47.664;9.166;2023-02-28T00:31:12;101932.03;;;-0.82;68.26
18755;BME280;35061;47.664;9.166;2023-02-28T00:33:40;101923.16;;;-0.84;68.28
18755;BME280;35061;47.664;9.166;2023-02-28T00:36:10;101930.82;;;-0.81;68.20
18755;BME280;35061;47.664;9.166;2023-02-28T00:38:39;101930.42;;;-0.83;68.30
18755;BME280;35061;47.664;9.166;2023-02-28T00:41:08;101917.54;;;-0.80;68.37
18755;BME280;35061;47.664;9.166;2023-02-28T00:43:37;101923.16;;;-0.80;68.34
18755;BME280;35061;47.664;9.166;2023-02-28T00:46:06;101925.59;;;-0.82;68.46
18755;BME280;35061;47.664;9.166;2023-02-28T00:48:34;101929.61;;;-0.83;68.18
18755;BME280;35061;47.664;9.166;2023-02-28T00:51:02;101911.91;;;-0.84;68.20
18755;BME280;35061;47.664;9.166;2023-02-28T00:53:30;101917.09;;;-0.86;68.13
18755;BME280;35061;47.664;9.166;2023-02-28T00:56:00;101915.48;;;-0.87;68.10
18755;BME280;35061;47.664;9.166;2023-02-28T00:58:28;101918.72;;;-0.85;68.33
18755;BME280;35061;47.664;9.166;2023-02-28T01:00:55;101919.93;;;-0.86;68.17
18755;BME280;35061;47.664;9.166;2023-02-28T01:03:23;101917.51;;;-0.88;68.26
18755;BME280;35061;47.664;9.166;2023-02-28T01:05:51;101920.75;;;-0.86;68.27
18755;BME280;35061;47.664;9.166;2023-02-28T01:08:20;101921.99;;;-0.83;68.41
18755;BME280;35061;47.664;9.166;2023-02-28T01:10:48;101917.15;;;-0.82;68.26
18755;BME280;35061;47.664;9.166;2023-02-28T01:13:16;101910.71;;;-0.83;68.21
18755;BME280;35061;47.664;9.166;2023-02-28T01:15:55;101915.91;;;-0.85;68.24
18755;BME280;35061;47.664;9.166;2023-02-28T01:18:23;101911.07;;;-0.88;68.63
18755;BME280;35061;47.664;9.166;2023-02-28T01:20:52;101908.65;;;-0.86;68.36
18755;BME280;35061;47.664;9.166;2023-02-28T01:23:21;101905.45;;;-0.88;68.32
18755;BME280;35061;47.664;9.166;2023-02-28T01:25:51;101904.63;;;-0.89;68.35
18755;BME280;35061;47.664;9.166;2023-02-28T01:28:19;101900.21;;;-0.86;68.27
18755;BME280;35061;47.664;9.166;2023-02-28T01:30:48;101910.28;;;-0.85;68.42
18755;BME280;35061;47.664;9.166;2023-02-28T01:33:17;101908.71;;;-0.82;68.25
18755;BME280;35061;47.664;9.166;2023-02-28T01:35:44;101915.16;;;-0.82;68.23
18755;BME280;35061;47.664;9.166;2023-02-28T01:38:12;101913.52;;;-0.83;68.18
18755;BME280;35061;47.664;9.166;2023-02-28T01:40:48;101921.53;;;-0.85;68.07
18755;BME280;35061;47.664;9.166;2023-02-28T01:43:22;101917.94;;;-0.86;68.32
18755;BME280;35061;47.664;9.166;2023-02-28T01:45:52;101916.73;;;-0.85;68.24
18755;BME280;35061;47.664;9.166;2023-02-28T01:48:26;101916.76;;;-0.81;68.20
18755;BME280;35061;47.664;9.166;2023-02-28T01:50:58;101910.77;;;-0.79;68.08
18755;BME280;35061;47.664;9.166;2023-02-28T01:53:32;101911.13;;;-0.81;67.89
18755;BME280;35061;47.664;9.166;2023-02-28T01:56:04;101913.95;;;-0.81;68.14
18755;BME280;35061;47.664;9.166;2023-02-28T01:58:32;101911.13;;;-0.81;68.19
18755;BME280;35061;47.664;9.166;2023-02-28T02:01:00;101911.13;;;-0.81;68.19
18755;BME280;35061;47.664;9.166;2023-02-28T02:03:30;101909.92;;;-0.80;67.96
18755;BME280;35061;47.664;9.166;2023-02-28T02:05:58;101913.95;;;-0.81;68.17
18755;BME280;35061;47.664;9.166;2023-02-28T02:08:28;101917.54;;;-0.80;68.04
18755;BME280;35061;47.664;9.166;2023-02-28T02:11:02;101912.38;;;-0.78;68.23
18755;BME280;35061;47.664;9.166;2023-02-28T02:14:09;101903.52;;;-0.77;68.23
18755;BME280;35061;47.664;9.166;2023-02-28T02:24:57;101895.80;;;-0.87;68.15
18755;BME280;35061;47.664;9.166;2023-02-28T02:30:29;101895.80;;;-0.87;68.02
18755;BME280;35061;47.664;9.166;2023-02-28T02:36:35;101897.40;;;-0.86;68.16
18755;BME280;35061;47.664;9.166;2023-02-28T02:39:21;101908.71;;;-0.82;68.18
18755;BME280;35061;47.664;9.166;2023-02-28T02:41:54;101899.88;;;-0.81;68.28
18755;BME280;35061;47.664;9.166;2023-02-28T02:44:44;101902.70;;;-0.81;67.98
18755;BME280;35061;47.664;9.166;2023-02-28T02:47:17;101902.27;;;-0.83;68.09
18755;BME280;35061;47.664;9.166;2023-02-28T02:49:50;101902.70;;;-0.81;68.02
18755;BME280;35061;47.664;9.166;2023-02-28T02:52:23;101909.53;;;-0.82;67.94
18755;BME280;35061;47.664;9.166;2023-02-28T02:54:54;101904.30;;;-0.80;67.86
18755;BME280;35061;47.664;9.166;2023-02-28T02:57:38;101908.35;;;-0.77;68.12
18755;BME280;35061;47.664;9.166;2023-02-28T03:00:08;101912.38;;;-0.75;67.99
18755;BME280;35061;47.664;9.166;2023-02-28T03:02:38;101913.59;;;-0.76;67.91
18755;BME280;35061;47.664;9.166;2023-02-28T03:05:14;101895.08;;;-0.77;67.98
18755;BME280;35061;47.664;9.166;2023-02-28T03:07:45;101906.75;;;-0.78;67.54
18755;BME280;35061;47.664;9.166;2023-02-28T03:10:28;101905.51;;;-0.81;67.54
18755;BME280;35061;47.664;9.166;2023-02-28T03:21:57;101899.82;;;-0.88;67.69
18755;BME280;35061;47.664;9.166;2023-02-28T03:24:34;101895.01;;;-0.88;67.76
18755;BME280;35061;47.664;9.166;2023-02-28T03:30:25;101894.69;;;-0.79;67.68
18755;BME280;35061;47.664;9.166;2023-02-28T03:33:06;101889.84;;;-0.82;67.59
18755;BME280;35061;47.664;9.166;2023-02-28T03:35:45;101888.24;;;-0.79;67.53
18755;BME280;35061;47.664;9.166;2023-02-28T03:40:55;101893.05;;;-0.80;67.40
18755;BME280;35061;47.664;9.166;2023-02-28T03:43:29;101891.80;;;-0.82;67.39
18755;BME280;35061;47.664;9.166;2023-02-28T03:46:02;101893.45;;;-0.81;67.41
18755;BME280;35061;47.664;9.166;2023-02-28T03:48:43;101888.99;;;-0.82;67.51
18755;BME280;35061;47.664;9.166;2023-02-28T03:51:20;101896.25;;;-0.81;67.26
18755;BME280;35061;47.664;9.166;2023-02-28T03:53:57;101892.23;;;-0.84;67.38
18755;BME280;35061;47.664;9.166;2023-02-28T03:56:37;101899.46;;;-0.83;67.27
18755;BME280;35061;47.664;9.166;2023-02-28T03:59:20;101905.54;;;-0.77;67.18
18755;BME280;35061;47.664;9.166;2023-02-28T04:01:50;101902.73;;;-0.77;67.17
18755;BME280;35061;47.664;9.166;2023-02-28T04:04:19;101918.78;;;-0.78;67.14
18755;BME280;35061;47.664;9.166;2023-02-28T04:06:50;101903.48;;;-0.80;67.11
18755;BME280;35061;47.664;9.166;2023-02-28T04:09:18;101910.31;;;-0.81;67.09
18755;BME280;35061;47.664;9.166;2023-02-28T04:11:51;101905.09;;;-0.83;67.17
18755;BME280;35061;47.664;9.166;2023-02-28T04:14:19;101905.90;;;-0.82;67.17
18755;BME280;35061;47.664;9.166;2023-02-28T04:16:47;101915.58;;;-0.80;67.20
18755;BME280;35061;47.664;9.166;2023-02-28T04:19:15;101916.76;;;-0.81;66.66
18755;BME280;35061;47.664;9.166;2023-02-28T04:21:44;101913.52;;;-0.83;67.07
18755;BME280;35061;47.664;9.166;2023-02-28T04:24:15;101912.73;;;-0.80;66.80
18755;BME280;35061;47.664;9.166;2023-02-28T04:26:46;101917.97;;;-0.82;66.55
18755;BME280;35061;47.664;9.166;2023-02-28T04:29:20;101919.93;;;-0.86;66.52
18755;BME280;35061;47.664;9.166;2023-02-28T04:31:48;101922.71;;;-0.86;66.64
18755;BME280;35061;47.664;9.166;2023-02-28T04:34:16;101919.93;;;-0.86;66.76
18755;BME280;35061;47.664;9.166;2023-02-28T04:36:44;101915.05;;;-0.89;66.62
18755;BME280;35061;47.664;9.166;2023-02-28T04:39:17;101912.24;;;-0.89;66.77
18755;BME280;35061;47.664;9.166;2023-02-28T04:41:46;101915.91;;;-0.89;66.96
18755;BME280;35061;47.664;9.166;2023-02-28T04:44:14;101903.80;;;-0.89;66.92
18755;BME280;35061;47.664;9.166;2023-02-28T04:46:43;101910.28;;;-0.85;67.02
18755;BME280;35061;47.664;9.166;2023-02-28T04:49:11;101910.28;;;-0.85;66.91
18755;BME280;35061;47.664;9.166;2023-02-28T04:51:39;101913.52;;;-0.83;66.95
18755;BME280;35061;47.664;9.166;2023-02-28T04:54:08;101918.30;;;-0.87;66.36
18755;BME280;35061;47.664;9.166;2023-02-28T04:56:35;101928.34;;;-0.90;66.64
18755;BME280;35061;47.664;9.166;2023-02-28T04:59:03;101923.49;;;-0.89;66.75
18755;BME280;35061;47.664;9.166;2023-02-28T05:01:33;101936.77;;;-0.90;66.70
18755;BME280;35061;47.664;9.166;2023-02-28T05:04:02;101925.52;;;-0.90;66.69
18755;BME280;35061;47.664;9.166;2023-02-28T05:06:32;101927.94;;;-0.88;66.68
18755;BME280;35061;47.664;9.166;2023-02-28T05:09:00;101935.95;;;-0.90;67.07
18755;BME280;35061;47.664;9.166;2023-02-28T05:11:31;101929.51;;;-0.91;66.81
18755;BME280;35061;47.664;9.166;2023-02-28T05:14:10;101938.34;;;-0.92;66.72
18755;BME280;35061;47.664;9.166;2023-02-28T05:16:38;101939.58;;;-0.90;66.75
18755;BME280;35061;47.664;9.166;2023-02-28T05:19:06;101941.58;;;-0.90;66.65
18755;BME280;35061;47.664;9.166;2023-02-28T05:21:37;101946.41;;;-0.87;66.80
18755;BME280;35061;47.664;9.166;2023-02-28T05:24:10;101952.11;;;-0.83;66.71
18755;BME280;35061;47.664;9.166;2023-02-28T05:26:42;101949.30;;;-0.83;66.33
18755;BME280;35061;47.664;9.166;2023-02-28T05:29:10;101954.10;;;-0.84;66.18
18755;BME280;35061;47.664;9.166;2023-02-28T05:31:38;101954.49;;;-0.86;66.29
18755;BME280;35061;47.664;9.166;2023-02-28T05:34:06;101953.28;;;-0.85;66.47
18755;BME280;35061;47.664;9.166;2023-02-28T05:36:36;101950.47;;;-0.85;66.46
18755;BME280;35061;47.664;9.166;2023-02-28T05:39:08;101948.87;;;-0.86;66.19
18755;BME280;35061;47.664;9.166;2023-02-28T05:41:43;101954.85;;;-0.87;66.40
18755;BME280;35061;47.664;9.166;2023-02-28T05:44:11;101957.27;;;-0.89;66.34
18755;BME280;35061;47.664;9.166;2023-02-28T05:46:39;101961.66;;;-0.92;66.38
18755;BME280;35061;47.664;9.166;2023-02-28T05:49:07;101962.51;;;-0.88;66.37
18755;BME280;35061;47.664;9.166;2023-02-28T05:51:35;101966.52;;;-0.85;66.37
18755;BME280;35061;47.664;9.166;2023-02-28T05:54:03;101958.45;;;-0.90;66.31
18755;BME280;35061;47.664;9.166;2023-02-28T05:56:31;101962.11;;;-0.90;66.56
18755;BME280;35061;47.664;9.166;2023-02-28T05:59:01;101964.92;;;-0.90;66.35
18755;BME280;35061;47.664;9.166;2023-02-28T06:01:43;101970.13;;;-0.88;66.45
18755;BME280;35061;47.664;9.166;2023-02-28T06:04:17;101976.96;;;-0.89;66.43
18755;BME280;35061;47.664;9.166;2023-02-28T06:06:58;101972.12;;;-0.92;66.44
18755;BME280;35061;47.664;9.166;2023-02-28T06:09:25;101970.88;;;-0.95;66.40
18755;BME280;35061;47.664;9.166;2023-02-28T06:11:53;101980.91;;;-0.94;66.11
18755;BME280;35061;47.664;9.166;2023-02-28T06:14:21;101984.94;;;-0.95;66.40
18755;BME280;35061;47.664;9.166;2023-02-28T06:16:49;101977.28;;;-0.98;66.56
18755;BME280;35061;47.664;9.166;2023-02-28T06:19:17;101980.88;;;-0.98;66.75
18755;BME280;35061;47.664;9.166;2023-02-28T06:21:45;101980.13;;;-0.94;66.58
18755;BME280;35061;47.664;9.166;2023-02-28T06:24:16;101990.17;;;-0.93;66.56
18755;BME280;35061;47.664;9.166;2023-02-28T06:26:43;101989.81;;;-0.88;66.68
18755;BME280;35061;47.664;9.166;2023-02-28T06:29:11;101989.91;;;-0.81;66.63
18755;BME280;35061;47.664;9.166;2023-02-28T06:31:39;101990.70;;;-0.84;66.58
18755;BME280;35061;47.664;9.166;2023-02-28T06:34:07;102004.39;;;-0.79;66.54
18755;BME280;35061;47.664;9.166;2023-02-28T06:36:35;102007.20;;;-0.79;66.57
18755;BME280;35061;47.664;9.166;2023-02-28T06:39:03;102004.43;;;-0.75;66.52
18755;BME280;35061;47.664;9.166;2023-02-28T06:41:31;102004.85;;;-0.73;66.30
18755;BME280;35061;47.664;9.166;2023-02-28T06:44:18;102014.95;;;-0.68;66.56
18755;BME280;35061;47.664;9.166;2023-02-28T06:46:46;102020.58;;;-0.68;66.36
18755;BME280;35061;47.664;9.166;2023-02-28T06:49:14;102025.42;;;-0.65;66.21
18755;BME280;35061;47.664;9.166;2023-02-28T06:51:44;102014.17;;;-0.65;65.80
18755;BME280;35061;47.664;9.166;2023-02-28T06:54:15;102011.45;;;-0.58;66.12
18755;BME280;35061;47.664;9.166;2023-02-28T06:56:42;102020.32;;;-0.56;65.64
18755;BME280;35061;47.664;9.166;2023-02-28T06:59:11;102016.75;;;-0.53;65.93
18755;BME280;35061;47.664;9.166;2023-02-28T07:01:39;102021.95;;;-0.51;65.58
18755;BME280;35061;47.664;9.166;2023-02-28T07:04:08;102025.59;;;-0.51;65.35
18755;BME280;35061;47.664;9.166;2023-02-28T07:06:35;102036.90;;;-0.47;65.50
18755;BME280;35061;47.664;9.166;2023-02-28T07:09:03;102032.48;;;-0.45;65.41
18755;BME280;35061;47.664;9.166;2023-02-28T07:11:31;102040.13;;;-0.45;65.18
18755;BME280;35061;47.664;9.166;2023-02-28T07:13:59;102038.11;;;-0.45;65.14
18755;BME280;35061;47.664;9.166;2023-02-28T07:16:27;102048.18;;;-0.44;65.15
18755;BME280;35061;47.664;9.166;2023-02-28T07:18:55;102050.20;;;-0.44;65.32
18755;BME280;35061;47.664;9.166;2023-02-28T07:21:23;102057.07;;;-0.41;65.29
18755;BME280;35061;47.664;9.166;2023-02-28T07:23:50;102052.27;;;-0.37;65.28
18755;BME280;35061;47.664;9.166;2023-02-28T07:26:19;102049.06;;;-0.36;65.18
18755;BME280;35061;47.664;9.166;2023-02-28T07:28:48;102053.09;;;-0.33;65.38
18755;BME280;35061;47.664;9.166;2023-02-28T07:31:16;102048.67;;;-0.34;65.28
18755;BME280;35061;47.664;9.166;2023-02-28T07:33:44;102049.48;;;-0.34;65.22
18755;BME280;35061;47.664;9.166;2023-02-28T07:36:15;102056.71;;;-0.36;64.93
18755;BME280;35061;47.664;9.166;2023-02-28T07:38:46;102058.67;;;-0.40;65.09
18755;BME280;35061;47.664;9.166;2023-02-28T07:41:19;102050.66;;;-0.38;65.26
18755;BME280;35061;47.664;9.166;2023-02-28T07:43:47;102061.39;;;-0.06;65.13
18755;BME280;35061;47.664;9.166;2023-02-28T07:46:16;102064.20;;;-0.10;64.87
18755;BME280;35061;47.664;9.166;2023-02-28T07:48:44;102069.44;;;-0.08;65.47
18755;BME280;35061;47.664;9.166;2023-02-28T07:51:12;102053.77;;;-0.02;65.05
18755;BME280;35061;47.664;9.166;2023-02-28T07:53:40;102057.04;;;0.00;65.19
18755;BME280;35061;47.664;9.166;2023-02-28T07:56:08;102062.70;;;0.04;65.35
18755;BME280;35061;47.664;9.166;2023-02-28T07:58:36;102055.50;;;0.10;65.21
18755;BME280;35061;47.664;9.166;2023-02-28T08:01:09;102065.58;;;0.11;65.10
18755;BME280;35061;47.664;9.166;2023-02-28T08:03:37;102057.50;;;0.09;65.16
18755;BME280;35061;47.664;9.166;2023-02-28T08:06:07;102064.01;;;0.13;65.16
18755;BME280;35061;47.664;9.166;2023-02-28T08:08:35;102064.40;;;0.16;64.63
18755;BME280;35061;47.664;9.166;2023-02-28T08:11:03;102064.79;;;0.14;64.54
18755;BME280;35061;47.664;9.166;2023-02-28T08:13:31;102061.52;;;0.08;64.53
18755;BME280;35061;47.664;9.166;2023-02-28T08:16:01;102071.56;;;0.02;64.48
18755;BME280;35061;47.664;9.166;2023-02-28T08:18:29;102081.56;;;-0.01;64.62
18755;BME280;35061;47.664;9.166;2023-02-28T08:20:57;102069.44;;;-0.08;63.96
18755;BME280;35061;47.664;9.166;2023-02-28T08:23:24;102071.85;;;-0.10;64.45
18755;BME280;35061;47.664;9.166;2023-02-28T08:25:54;102069.04;;;-0.10;64.35
18755;BME280;35061;47.664;9.166;2023-02-28T08:28:23;102075.41;;;-0.13;64.34
18755;BME280;35061;47.664;9.166;2023-02-28T08:30:53;102070.16;;;-0.19;64.36
18755;BME280;35061;47.664;9.166;2023-02-28T08:33:22;102066.91;;;-0.21;64.33
18755;BME280;35061;47.664;9.166;2023-02-28T08:35:56;102076.63;;;-0.15;64.64
18755;BME280;35061;47.664;9.166;2023-02-28T08:38:24;102071.36;;;-0.16;64.58
18755;BME280;35061;47.664;9.166;2023-02-28T08:40:59;102074.96;;;-0.19;64.51
18755;BME280;35061;47.664;9.166;2023-02-28T08:43:28;102072.61;;;-0.13;64.71
18755;BME280;35061;47.664;9.166;2023-02-28T08:45:56;102080.68;;;-0.12;64.66
18755;BME280;35061;47.664;9.166;2023-02-28T08:48:28;102083.92;;;-0.10;64.47
18755;BME280;35061;47.664;9.166;2023-02-28T08:51:01;102083.49;;;-0.12;64.61
18755;BME280;35061;47.664;9.166;2023-02-28T08:53:33;102089.58;;;-0.06;64.74
18755;BME280;35061;47.664;9.166;2023-02-28T08:56:11;102097.66;;;-0.05;64.14
18755;BME280;35061;47.664;9.166;2023-02-28T08:58:39;102092.81;;;-0.04;64.32
18755;BME280;35061;47.664;9.166;2023-02-28T09:04:11;102097.23;;;-0.03;64.42
18755;BME280;35061;47.664;9.166;2023-02-28T09:06:45;102103.28;;;-0.05;64.28
18755;BME280;35061;47.664;9.166;2023-02-28T09:09:12;102107.30;;;-0.02;64.22
18755;BME280;35061;47.664;9.166;2023-02-28T09:11:40;102101.68;;;-0.02;64.04
18755;BME280;35061;47.664;9.166;2023-02-28T09:14:08;102107.30;;;-0.02;63.80
18755;BME280;35061;47.664;9.166;2023-02-28T09:16:36;102102.52;;;0.02;64.25
18755;BME280;35061;47.664;9.166;2023-02-28T09:19:04;102103.80;;;0.12;64.31
18755;BME280;35061;47.664;9.166;2023-02-28T09:21:31;102107.04;;;0.14;64.00
18755;BME280;35061;47.664;9.166;2023-02-28T09:23:59;102111.52;;;0.19;64.10
18755;BME280;35061;47.664;9.166;2023-02-28T09:26:27;102108.28;;;0.17;63.48
18755;BME280;35061;47.664;9.166;2023-02-28T09:29:08;102101.94;;;0.27;64.16
18755;BME280;35061;47.664;9.166;2023-02-28T09:31:36;102094.68;;;0.26;63.80
18755;BME280;35061;47.664;9.166;2023-02-28T09:34:04;102097.95;;;0.32;63.73
18755;BME280;35061;47.664;9.166;2023-02-28T09:36:32;102102.79;;;0.35;63.58
18755;BME280;35061;47.664;9.166;2023-02-28T09:39:12;102093.96;;;0.36;62.93
18755;BME280;35061;47.664;9.166;2023-02-28T09:41:42;102099.65;;;0.44;63.32
18755;BME280;35061;47.664;9.166;2023-02-28T09:44:28;102094.81;;;0.44;63.44
18755;BME280;35061;47.664;9.166;2023-02-28T09:47:20;102108.55;;;0.49;63.14
18755;BME280;35061;47.664;9.166;2023-02-28T09:49:53;102108.97;;;0.51;63.37
18755;BME280;35061;47.664;9.166;2023-02-28T09:52:28;102108.61;;;0.60;63.15
18755;BME280;35061;47.664;9.166;2023-02-28T09:55:08;102105.44;;;0.65;63.22
18755;BME280;35061;47.664;9.166;2023-02-28T09:57:45;102105.41;;;0.62;61.87
18755;BME280;35061;47.664;9.166;2023-02-28T10:00:52;102115.87;;;0.61;62.97
18755;BME280;35061;47.664;9.166;2023-02-28T10:03:25;102119.10;;;0.63;62.86
18755;BME280;35061;47.664;9.166;2023-02-28T10:06:07;102127.12;;;0.58;62.03
18755;BME280;35061;47.664;9.166;2023-02-28T10:08:58;102125.16;;;0.62;62.73
18755;BME280;35061;47.664;9.166;2023-02-28T10:11:30;102117.54;;;0.69;62.66
18755;BME280;35061;47.664;9.166;2023-02-28T10:14:03;102124.08;;;0.81;62.84
18755;BME280;35061;47.664;9.166;2023-02-28T10:16:39;102122.48;;;0.83;62.38
18755;BME280;35061;47.664;9.166;2023-02-28T10:21:56;102131.86;;;1.02;62.17
18755;BME280;35061;47.664;9.166;2023-02-28T10:24:30;102129.80;;;0.99;61.63
18755;BME280;35061;47.664;9.166;2023-02-28T10:27:12;102138.34;;;1.06;61.94
18755;BME280;35061;47.664;9.166;2023-02-28T10:29:44;102137.55;;;1.13;62.00
18755;BME280;35061;47.664;9.166;2023-02-28T10:32:21;102137.98;;;1.19;61.85
18755;BME280;35061;47.664;9.166;2023-02-28T10:35:06;102137.22;;;1.29;61.64
18755;BME280;35061;47.664;9.166;2023-02-28T10:37:37;102139.67;;;1.34;60.56
18755;BME280;35061;47.664;9.166;2023-02-28T10:40:26;102131.20;;;1.34;60.71
18755;BME280;35061;47.664;9.166;2023-02-28T10:48:37;102144.97;;;1.47;61.00
18755;BME280;35061;47.664;9.166;2023-02-28T10:51:11;102146.18;;;1.46;60.52
18755;BME280;35061;47.664;9.166;2023-02-28T10:56:27;102145.37;;;1.45;60.22
18755;BME280;35061;47.664;9.166;2023-02-28T11:04:00;102145.76;;;1.47;60.09
18755;BME280;35061;47.664;9.166;2023-02-28T11:06:32;102150.20;;;1.52;60.73
18755;BME280;35061;47.664;9.166;2023-02-28T11:09:04;102153.48;;;1.54;60.67
18755;BME280;35061;47.664;9.166;2023-02-28T11:11:45;102152.66;;;1.57;60.32
18755;BME280;35061;47.664;9.166;2023-02-28T11:14:40;102155.08;;;1.59;60.23
18755;BME280;35061;47.664;9.166;2023-02-28T11:17:20;102150.23;;;1.56;59.70
18755;BME280;35061;47.664;9.166;2023-02-28T11:19:58;102156.71;;;1.56;60.35
18755;BME280;35061;47.664;9.166;2023-02-28T11:22:32;102150.23;;;1.56;60.27
18755;BME280;35061;47.664;9.166;2023-02-28T11:25:09;102150.62;;;1.50;60.51
18755;BME280;35061;47.664;9.166;2023-02-28T11:27:49;102150.98;;;1.45;60.35
18755;BME280;35061;47.664;9.166;2023-02-28T11:30:34;102141.31;;;1.46;60.13
18755;BME280;35061;47.664;9.166;2023-02-28T11:33:30;102137.32;;;1.51;60.16
18755;BME280;35061;47.664;9.166;2023-02-28T11:36:08;102138.56;;;1.57;60.43
18755;BME280;35061;47.664;9.166;2023-02-28T11:38:37;102120.02;;;1.60;60.67
18755;BME280;35061;47.664;9.166;2023-02-28T11:46:54;102140.20;;;1.65;60.60
18755;BME280;35061;47.664;9.166;2023-02-28T11:49:32;102146.25;;;1.67;60.67
18755;BME280;35061;47.664;9.166;2023-02-28T11:52:27;102140.62;;;1.71;60.75
18755;BME280;35061;47.664;9.166;2023-02-28T11:58:35;102135.33;;;1.66;60.67
18755;BME280;35061;47.664;9.166;2023-02-28T12:06:38;102140.20;;;1.69;60.10
18755;BME280;35061;47.664;9.166;2023-02-28T12:15:25;102127.67;;;1.63;59.83
18755;BME280;35061;47.664;9.166;2023-02-28T12:20:33;102136.14;;;1.63;59.24
18755;BME280;35061;47.664;9.166;2023-02-28T12:28:57;102147.88;;;1.72;60.12
18755;BME280;35061;47.664;9.166;2023-02-28T12:31:30;102135.36;;;1.73;60.12
18755;BME280;35061;47.664;9.166;2023-02-28T12:34:05;102131.30;;;1.71;60.13
18755;BME280;35061;47.664;9.166;2023-02-28T12:36:35;102130.09;;;1.68;59.83
18755;BME280;35061;47.664;9.166;2023-02-28T12:39:10;102128.52;;;1.74;60.27
18755;BME280;35061;47.664;9.166;2023-02-28T12:41:44;102128.10;;;1.79;60.40
18755;BME280;35061;47.664;9.166;2023-02-28T12:44:27;102115.18;;;1.78;60.37
18755;BME280;35061;47.664;9.166;2023-02-28T12:47:02;102115.61;;;1.80;60.18
18755;BME280;35061;47.664;9.166;2023-02-28T12:49:46;102120.05;;;1.78;60.17
18755;BME280;35061;47.664;9.166;2023-02-28T12:52:29;102113.19;;;1.83;60.44
18755;BME280;35061;47.664;9.166;2023-02-28T12:55:11;102109.16;;;1.87;60.52
18755;BME280;35061;47.664;9.166;2023-02-28T12:58:20;102113.61;;;1.92;60.34
18755;BME280;35061;47.664;9.166;2023-02-28T13:09:32;102113.19;;;1.90;60.17
18755;BME280;35061;47.664;9.166;2023-02-28T13:12:00;102104.72;;;1.97;60.05
18755;BME280;35061;47.664;9.166;2023-02-28T13:14:38;102115.21;;;2.00;60.00
18755;BME280;35061;47.664;9.166;2023-02-28T13:24:57;102107.17;;;2.02;60.19
18755;BME280;35061;47.664;9.166;2023-02-28T13:27:34;102103.93;;;1.97;59.71
18755;BME280;35061;47.664;9.166;2023-02-28T13:39:00;102109.13;;;1.76;60.08
18755;BME280;35061;47.664;9.166;2023-02-28T13:46:30;102107.14;;;1.77;60.29
18755;BME280;35061;47.664;9.166;2023-02-28T14:03:11;102109.55;;;2.00;60.13
18755;BME280;35061;47.664;9.166;2023-02-28T14:05:42;102121.30;;;1.95;59.70
18755;BME280;35061;47.664;9.166;2023-02-28T14:08:18;102116.03;;;1.97;59.58
18755;BME280;35061;47.664;9.166;2023-02-28T14:10:51;102114.04;;;1.98;60.11
18755;BME280;35061;47.664;9.166;2023-02-28T14:13:37;102123.29;;;1.94;59.50
18755;BME280;35061;47.664;9.166;2023-02-28T14:16:08;102124.50;;;1.90;59.48
18755;BME280;35061;47.664;9.166;2023-02-28T14:18:37;102125.29;;;1.79;59.88
18755;BME280;35061;47.664;9.166;2023-02-28T14:35:35;102117.24;;;1.89;60.61
18755;BME280;35061;47.664;9.166;2023-02-28T14:38:14;102122.51;;;1.94;60.68
18755;BME280;35061;47.664;9.166;2023-02-28T14:40:45;102119.66;;;1.87;60.63
18755;BME280;35061;47.664;9.166;2023-02-28T14:43:23;102126.13;;;1.87;60.84
18755;BME280;35061;47.664;9.166;2023-02-28T15:02:37;102139.80;;;1.74;61.39
18755;BME280;35061;47.664;9.166;2023-02-28T15:07:45;102150.27;;;1.66;61.30
18755;BME280;35061;47.664;9.166;2023-02-28T15:13:07;102143.01;;;1.62;61.69
18755;BME280;35061;47.664;9.166;2023-02-28T15:18:48;102157.07;;;1.51;61.78
18755;BME280;35061;47.664;9.166;2023-02-28T15:21:36;102157.07;;;1.51;62.06
18755;BME280;35061;47.664;9.166;2023-02-28T15:24:27;102159.88;;;1.51;61.85
18755;BME280;35061;47.664;9.166;2023-02-28T15:27:04;102162.73;;;1.55;61.90
18755;BME280;35061;47.664;9.166;2023-02-28T15:29:41;102158.67;;;1.52;61.92
18755;BME280;35061;47.664;9.166;2023-02-28T15:34:48;102164.30;;;1.41;62.22
18755;BME280;35061;47.664;9.166;2023-02-28T15:42:42;102167.08;;;1.30;62.65
18755;BME280;35061;47.664;9.166;2023-02-28T15:45:46;102166.26;;;1.30;62.51
18755;BME280;35061;47.664;9.166;2023-02-28T15:48:24;102163.05;;;1.28;62.38
18755;BME280;35061;47.664;9.166;2023-02-28T15:51:02;102160.21;;;1.28;62.50
18755;BME280;35061;47.664;9.166;2023-02-28T15:53:47;102156.55;;;1.23;62.58
18755;BME280;35061;47.664;9.166;2023-02-28T15:58:58;102154.98;;;1.30;62.59
18755;BME280;35061;47.664;9.166;2023-02-28T16:01:29;102163.05;;;1.28;62.80
18755;BME280;35061;47.664;9.166;2023-02-28T16:04:06;102159.39;;;1.27;62.73
18755;BME280;35061;47.664;9.166;2023-02-28T16:06:41;102158.58;;;1.27;62.89
18755;BME280;35061;47.664;9.166;2023-02-28T16:09:16;102156.94;;;1.25;62.94
18755;BME280;35061;47.664;9.166;2023-02-28T16:11:49;102154.55;;;1.24;62.96
18755;BME280;35061;47.664;9.166;2023-02-28T16:14:24;102157.37;;;1.24;63.02